createdAt,value
2017-07-01T00:00:48.787Z,63.13
2017-07-01T00:03:17.522Z,66.90
2017-07-01T00:05:46.323Z,54.27
2017-07-01T00:08:15.270Z,64.27
2017-07-01T00:10:44.719Z,64.60
2017-07-01T00:13:13.617Z,48.70
2017-07-01T00:15:42.609Z,81.00
2017-07-01T00:18:11.499Z,68.07
2017-07-01T00:20:40.351Z,63.07
2017-07-01T00:23:09.995Z,56.40
2017-07-01T00:25:38.782Z,58.77
2017-07-01T00:28:06.974Z,56.70
2017-07-01T00:30:35.751Z,63.57
2017-07-01T00:33:04.534Z,63.23
2017-07-01T00:35:33.431Z,68.47
2017-07-01T00:38:01.735Z,62.13
2017-07-01T00:40:30.084Z,68.67
2017-07-01T00:42:58.286Z,65.13
2017-07-01T00:45:26.617Z,73.37
2017-07-01T00:47:55.335Z,66.13
2017-07-01T00:50:24.127Z,81.97
2017-07-01T00:52:53.328Z,82.90
2017-07-01T00:55:22.115Z,75.30
2017-07-01T00:57:51.110Z,79.87
2017-07-01T01:00:19.823Z,78.50
2017-07-01T01:02:48.374Z,71.53
2017-07-01T01:05:17.274Z,82.53
2017-07-01T01:07:45.835Z,79.13
2017-07-01T01:10:14.764Z,61.27
2017-07-01T01:12:43.379Z,82.50
2017-07-01T01:15:12.226Z,77.30
2017-07-01T01:17:41.019Z,73.70
2017-07-01T01:20:10.011Z,90.50
2017-07-01T01:22:39.313Z,70.17
2017-07-01T01:25:08.206Z,89.97
2017-07-01T01:27:36.994Z,68.83
2017-07-01T01:30:06.083Z,82.23
2017-07-01T01:32:34.715Z,66.03
2017-07-01T01:35:03.382Z,69.13
2017-07-01T01:37:32.755Z,76.37
2017-07-01T01:40:01.699Z,86.67
2017-07-01T01:42:30.346Z,93.20
2017-07-01T01:44:59.538Z,82.90
2017-07-01T01:47:28.643Z,74.43
2017-07-01T01:49:57.731Z,78.60
2017-07-01T01:52:26.307Z,75.10
2017-07-01T01:54:54.743Z,78.17
2017-07-01T01:57:23.699Z,72.30
2017-07-01T01:59:52.675Z,96.47
2017-07-01T02:02:21.683Z,76.90
2017-07-01T02:04:50.675Z,80.57
2017-07-01T02:07:19.875Z,83.50
2017-07-01T02:09:48.444Z,91.00
2017-07-01T02:12:17.803Z,97.57
2017-07-01T02:14:52.247Z,72.90
2017-07-01T02:17:43.295Z,59.50
2017-07-01T02:20:19.976Z,58.07
2017-07-01T02:22:49.067Z,64.07
2017-07-01T02:25:28.539Z,76.20
2017-07-01T02:27:57.611Z,77.37
2017-07-01T02:30:26.812Z,74.43
2017-07-01T02:33:12.003Z,71.33
2017-07-01T02:35:42.531Z,64.10
2017-07-01T02:38:11.119Z,72.43
2017-07-01T02:40:40.344Z,84.23
2017-07-01T02:43:08.863Z,79.10
2017-07-01T02:45:59.554Z,73.60
2017-07-01T02:48:48.665Z,73.67
2017-07-01T02:51:27.355Z,69.30
2017-07-01T02:53:55.881Z,68.80
2017-07-01T02:56:40.737Z,72.70
2017-07-01T02:59:17.094Z,61.50
2017-07-01T03:01:48.535Z,74.20
2017-07-01T03:04:17.742Z,80.40
2017-07-01T03:06:46.846Z,70.00
2017-07-01T03:09:15.483Z,62.80
2017-07-01T03:11:45.226Z,85.73
2017-07-01T03:14:14.271Z,79.03
2017-07-01T03:16:43.375Z,80.43
2017-07-01T03:19:13.349Z,77.67
2017-07-01T03:21:42.434Z,82.20
2017-07-01T03:24:11.684Z,78.67
2017-07-01T03:26:40.182Z,69.13
2017-07-01T03:29:10.576Z,62.87
2017-07-01T03:31:39.499Z,60.93
2017-07-01T03:34:09.363Z,65.13
2017-07-01T03:36:40.099Z,64.90
2017-07-01T03:39:20.669Z,58.77
2017-07-01T03:42:01.342Z,66.97
2017-07-01T03:44:53.684Z,71.07
2017-07-01T03:47:33.803Z,98.00
2017-07-01T03:50:05.806Z,74.00
2017-07-01T03:52:35.655Z,85.33
2017-07-01T03:55:05.275Z,85.73
2017-07-01T03:57:45.566Z,81.37
2017-07-01T04:00:14.771Z,78.87
2017-07-01T04:02:43.764Z,76.90
2017-07-01T04:05:12.958Z,96.27
2017-07-01T04:07:44.930Z,75.73
2017-07-01T04:10:13.919Z,84.23
2017-07-01T04:12:43.032Z,90.37
2017-07-01T04:15:12.215Z,62.03
2017-07-01T04:17:41.464Z,75.73
2017-07-01T04:20:12.940Z,87.20
2017-07-01T04:22:49.199Z,80.90
2017-07-01T04:25:19.047Z,91.17
2017-07-01T04:27:48.151Z,75.27
2017-07-01T04:30:17.450Z,77.30
2017-07-01T04:32:46.495Z,87.17
2017-07-01T04:35:16.419Z,55.23
2017-07-01T04:37:46.400Z,77.90
2017-07-01T04:40:18.742Z,78.17
2017-07-01T04:43:02.391Z,64.00
2017-07-01T04:45:39.971Z,49.53
2017-07-01T04:48:16.359Z,57.67
2017-07-01T04:50:56.731Z,68.63
2017-07-01T04:53:25.448Z,58.40
2017-07-01T04:55:54.299Z,66.23
2017-07-01T04:58:22.847Z,74.60
2017-07-01T05:00:51.963Z,55.90
2017-07-01T05:03:20.658Z,57.60
2017-07-01T05:05:51.562Z,47.80
2017-07-01T05:08:39.851Z,59.80
2017-07-01T05:11:08.838Z,49.10
2017-07-01T05:13:37.935Z,47.15
2017-07-01T05:16:27.684Z,47.47
2017-07-01T05:18:56.199Z,50.30
2017-07-01T05:21:25.243Z,61.50
2017-07-01T05:23:55.301Z,46.90
2017-07-01T05:26:23.875Z,38.88
2017-07-01T05:28:52.775Z,44.80
2017-07-01T05:31:25.623Z,37.80
2017-07-01T05:33:57.914Z,41.23
2017-07-01T05:36:31.182Z,47.05
2017-07-01T05:38:59.695Z,40.75
2017-07-01T05:41:29.651Z,49.17
2017-07-01T05:43:58.843Z,39.97
2017-07-01T05:46:31.495Z,58.47
2017-07-01T05:49:04.419Z,40.60
2017-07-01T05:51:51.378Z,58.92
2017-07-01T05:54:28.419Z,43.70
2017-07-01T05:56:57.551Z,45.83
2017-07-01T05:59:38.306Z,38.40
2017-07-01T06:02:07.251Z,49.17
2017-07-01T06:04:35.751Z,68.05
2017-07-01T06:07:05.005Z,44.67
2017-07-01T06:09:46.049Z,54.13
2017-07-01T06:12:40.439Z,60.67
2017-07-01T06:15:10.007Z,52.10
2017-07-01T06:17:41.991Z,64.78
2017-07-01T06:20:16.719Z,60.97
2017-07-01T06:22:51.409Z,43.13
2017-07-01T06:25:19.927Z,64.72
2017-07-01T06:27:52.840Z,47.17
2017-07-01T06:30:35.349Z,68.78
2017-07-01T06:33:06.918Z,60.58
2017-07-01T06:35:35.978Z,52.28
2017-07-01T06:38:20.867Z,66.10
2017-07-01T06:41:14.379Z,48.95
2017-07-01T06:44:01.739Z,53.42
2017-07-01T06:46:40.199Z,73.45
2017-07-01T06:49:09.967Z,64.78
2017-07-01T06:51:39.079Z,56.28
2017-07-01T06:54:08.950Z,74.53
2017-07-01T06:56:38.901Z,50.72
2017-07-01T06:59:08.003Z,64.10
2017-07-01T07:01:37.001Z,52.90
2017-07-01T07:04:06.784Z,55.40
2017-07-01T07:06:35.667Z,57.62
2017-07-01T07:09:06.351Z,50.55
2017-07-01T07:11:35.423Z,68.25
2017-07-01T07:14:04.337Z,62.55
2017-07-01T07:16:33.274Z,58.47
2017-07-01T07:19:03.236Z,87.88
2017-07-01T07:21:32.335Z,74.12
2017-07-01T07:24:01.531Z,51.35
2017-07-01T07:26:30.776Z,57.55
2017-07-01T07:29:00.751Z,44.00
2017-07-01T07:31:29.847Z,55.53
2017-07-01T07:33:59.039Z,53.10
2017-07-01T07:36:27.559Z,44.60
2017-07-01T07:38:56.727Z,52.05
2017-07-01T07:41:26.332Z,47.88
2017-07-01T07:43:55.322Z,52.42
2017-07-01T07:46:24.015Z,53.47
2017-07-01T07:48:53.015Z,66.05
2017-07-01T07:51:21.754Z,61.85
2017-07-01T07:53:51.194Z,44.88
2017-07-01T07:56:19.455Z,53.58
2017-07-01T07:58:48.127Z,63.53
2017-07-01T08:01:17.731Z,46.57
2017-07-01T08:03:47.331Z,58.65
2017-07-01T08:06:16.603Z,45.30
2017-07-01T08:08:45.372Z,54.08
2017-07-01T08:11:14.266Z,55.47
2017-07-01T08:13:43.019Z,57.30
2017-07-01T08:16:12.459Z,51.30
2017-07-01T08:18:41.464Z,56.47
2017-07-01T08:21:10.352Z,62.40
2017-07-01T08:23:39.195Z,50.37
2017-07-01T08:26:08.890Z,52.77
2017-07-01T08:28:37.552Z,61.60
2017-07-01T08:31:06.423Z,54.40
2017-07-01T08:33:35.527Z,69.27
2017-07-01T08:36:05.035Z,47.00
2017-07-01T08:38:33.616Z,53.40
2017-07-01T08:41:02.611Z,50.87
2017-07-01T08:43:31.414Z,55.77
2017-07-01T08:46:00.947Z,47.77
2017-07-01T08:48:29.307Z,54.43
2017-07-01T08:50:58.179Z,46.83
2017-07-01T08:53:26.458Z,46.43
2017-07-01T08:55:55.390Z,58.20
2017-07-01T08:58:24.130Z,42.63
2017-07-01T09:00:52.987Z,44.30
2017-07-01T09:03:22.539Z,46.93
2017-07-01T09:05:51.319Z,52.67
2017-07-01T09:08:20.274Z,49.40
2017-07-01T09:10:49.715Z,59.30
2017-07-01T09:13:17.899Z,61.27
2017-07-01T09:15:46.526Z,51.20
2017-07-01T09:18:15.367Z,52.47
2017-07-01T09:20:44.155Z,55.70
2017-07-01T09:23:13.058Z,53.73
2017-07-01T09:25:42.011Z,51.00
2017-07-01T09:28:10.292Z,62.23
2017-07-01T09:30:39.948Z,50.23
2017-07-01T09:33:08.718Z,52.37
2017-07-01T09:35:37.355Z,47.83
2017-07-01T09:38:05.995Z,37.23
2017-07-01T09:40:35.091Z,58.83
2017-07-01T09:43:04.435Z,51.10
2017-07-01T09:45:33.193Z,52.47
2017-07-01T09:48:02.383Z,56.60
2017-07-01T09:50:31.185Z,77.63
2017-07-01T09:53:00.083Z,61.53
2017-07-01T09:55:29.167Z,44.27
2017-07-01T09:57:57.756Z,64.17
2017-07-01T10:00:26.432Z,65.37
2017-07-01T10:02:54.822Z,46.70
2017-07-01T10:05:23.814Z,61.33
2017-07-01T10:07:52.403Z,45.80
2017-07-01T10:10:21.331Z,52.67
2017-07-01T10:12:50.079Z,55.30
2017-07-01T10:15:18.927Z,68.47
2017-07-01T10:17:48.523Z,48.93
2017-07-01T10:20:17.262Z,57.80
2017-07-01T10:22:46.268Z,57.93
2017-07-01T10:25:15.252Z,46.17
2017-07-01T10:27:44.151Z,61.07
2017-07-01T10:30:12.951Z,57.73
2017-07-01T10:32:41.818Z,56.80
2017-07-01T10:35:10.622Z,56.80
2017-07-01T10:37:39.298Z,47.33
2017-07-01T10:40:08.296Z,58.67
2017-07-01T10:42:37.195Z,55.60
2017-07-01T10:45:05.480Z,53.97
2017-07-01T10:47:34.199Z,62.63
2017-07-01T10:50:03.043Z,58.30
2017-07-01T10:52:31.779Z,54.73
2017-07-01T10:55:00.726Z,58.97
2017-07-01T10:57:29.523Z,54.53
2017-07-01T10:59:57.747Z,58.73
2017-07-01T11:02:27.511Z,57.63
2017-07-01T11:04:56.359Z,56.63
2017-07-01T11:07:24.505Z,53.40
2017-07-01T11:09:53.360Z,67.53
2017-07-01T11:12:22.151Z,53.50
2017-07-01T11:14:50.947Z,47.60
2017-07-01T11:17:19.944Z,59.27
2017-07-01T11:19:48.731Z,52.30
2017-07-01T11:22:17.623Z,58.23
2017-07-01T11:24:46.331Z,50.43
2017-07-01T11:27:14.940Z,57.83
2017-07-01T11:29:44.199Z,54.53
2017-07-01T11:32:12.979Z,63.03
2017-07-01T11:34:41.717Z,50.20
2017-07-01T11:37:10.566Z,60.70
2017-07-01T11:39:39.518Z,51.90
2017-07-01T11:42:09.063Z,49.07
2017-07-01T11:44:37.747Z,55.00
2017-07-01T11:47:06.747Z,68.03
2017-07-01T11:49:35.539Z,53.83
2017-07-01T11:52:03.899Z,55.37
2017-07-01T11:54:32.807Z,58.23
2017-07-01T11:57:01.567Z,44.00
2017-07-01T11:59:30.294Z,45.43
2017-07-01T12:01:59.383Z,41.50
2017-07-01T12:04:28.132Z,48.63
2017-07-01T12:06:57.571Z,43.93
2017-07-01T12:09:25.865Z,48.80
2017-07-01T12:11:54.478Z,39.33
2017-07-01T12:14:23.331Z,43.90
2017-07-01T12:16:52.325Z,45.43
2017-07-01T12:19:21.116Z,38.20
2017-07-01T12:21:49.959Z,40.40
2017-07-01T12:24:18.260Z,53.97
2017-07-01T12:26:46.963Z,52.20
2017-07-01T12:29:15.765Z,50.97
2017-07-01T12:31:44.655Z,57.50
2017-07-01T12:34:13.604Z,56.67
2017-07-01T12:36:43.051Z,54.10
2017-07-01T12:39:12.770Z,57.70
2017-07-01T12:41:40.955Z,42.97
2017-07-01T12:44:09.784Z,58.03
2017-07-01T12:46:39.483Z,58.83
2017-07-01T12:49:08.231Z,50.87
2017-07-01T12:51:37.018Z,42.63
2017-07-01T12:54:06.211Z,53.77
2017-07-01T12:56:34.858Z,43.77
2017-07-01T12:59:04.303Z,41.77
2017-07-01T13:01:33.191Z,41.10
2017-07-01T13:04:01.403Z,47.90
2017-07-01T13:06:30.051Z,43.07
2017-07-01T13:08:58.795Z,45.80
2017-07-01T13:11:27.747Z,35.73
2017-07-01T13:13:56.644Z,41.20
2017-07-01T13:16:24.946Z,47.17
2017-07-01T13:18:53.595Z,43.17
2017-07-01T13:21:22.392Z,42.87
2017-07-01T13:23:51.381Z,53.37
2017-07-01T13:26:20.278Z,48.40
2017-07-01T13:28:49.931Z,49.37
2017-07-01T13:31:18.823Z,41.03
2017-07-01T13:33:47.522Z,37.93
2017-07-01T13:36:16.964Z,46.13
2017-07-01T13:38:45.907Z,52.50
2017-07-01T13:41:14.655Z,43.73
2017-07-01T13:43:43.447Z,48.77
2017-07-01T13:46:11.703Z,43.30
2017-07-01T13:48:40.502Z,39.00
2017-07-01T13:51:09.298Z,44.67
2017-07-01T13:53:38.301Z,51.97
2017-07-01T13:56:07.247Z,48.40
2017-07-01T13:58:35.424Z,45.77
2017-07-01T14:01:03.763Z,49.57
2017-07-01T14:03:32.326Z,39.53
2017-07-01T14:06:00.594Z,48.10
2017-07-01T14:08:29.451Z,49.90
2017-07-01T14:10:59.007Z,49.40
2017-07-01T14:13:27.795Z,46.77
2017-07-01T14:15:56.182Z,46.23
2017-07-01T14:18:24.800Z,43.33
2017-07-01T14:20:53.440Z,47.87
2017-07-01T14:23:22.339Z,51.67
2017-07-01T14:25:51.183Z,54.90
2017-07-01T14:28:20.628Z,42.67
2017-07-01T14:30:49.619Z,47.17
2017-07-01T14:33:18.411Z,53.60
2017-07-01T14:35:47.307Z,53.70
2017-07-01T14:38:15.635Z,56.30
2017-07-01T14:40:45.300Z,59.10
2017-07-01T14:43:14.144Z,39.13
2017-07-01T14:45:42.402Z,58.87
2017-07-01T14:48:10.631Z,38.90
2017-07-01T14:50:39.487Z,45.07
2017-07-01T14:53:07.827Z,50.53
2017-07-01T14:55:36.643Z,47.00
2017-07-01T14:58:05.691Z,41.53
2017-07-01T15:00:34.587Z,41.30
2017-07-01T15:03:03.383Z,50.20
2017-07-01T15:05:32.226Z,54.23
2017-07-01T15:08:00.619Z,45.57
2017-07-01T15:10:29.330Z,47.03
2017-07-01T15:12:57.515Z,63.13
2017-07-01T15:15:26.295Z,54.90
2017-07-01T15:17:54.886Z,50.00
2017-07-01T15:20:23.679Z,60.77
2017-07-01T15:22:52.475Z,57.33
2017-07-01T15:25:21.468Z,54.73
2017-07-01T15:27:50.156Z,48.10
2017-07-01T15:30:19.031Z,45.70
2017-07-01T15:32:47.166Z,48.17
2017-07-01T15:35:16.613Z,46.27
2017-07-01T15:37:45.492Z,52.50
2017-07-01T15:40:14.198Z,42.20
2017-07-01T15:42:42.941Z,42.80
2017-07-01T15:45:12.481Z,54.80
2017-07-01T15:47:41.181Z,52.90
2017-07-01T15:50:10.133Z,47.27
2017-07-01T15:52:39.817Z,47.03
2017-07-01T15:55:08.561Z,48.67
2017-07-01T15:57:37.470Z,55.23
2017-07-01T16:00:06.549Z,48.33
2017-07-01T16:02:35.557Z,49.20
2017-07-01T16:05:04.449Z,39.13
2017-07-01T16:07:33.548Z,38.53
2017-07-01T16:10:02.509Z,48.40
2017-07-01T16:12:31.489Z,52.70
2017-07-01T16:15:01.085Z,44.37
2017-07-01T16:17:29.713Z,54.67
2017-07-01T16:19:58.574Z,46.00
2017-07-01T16:22:28.213Z,47.40
2017-07-01T16:24:56.409Z,58.50
2017-07-01T16:27:25.311Z,42.30
2017-07-01T16:29:54.099Z,49.80
2017-07-01T16:32:22.706Z,50.17
2017-07-01T16:34:51.461Z,46.33
2017-07-01T16:37:20.453Z,61.83
2017-07-01T16:39:49.245Z,46.37
2017-07-01T16:42:18.037Z,37.40
2017-07-01T16:44:47.185Z,43.37
2017-07-01T16:47:16.621Z,45.03
2017-07-01T16:49:45.428Z,45.10
2017-07-01T16:52:14.317Z,53.03
2017-07-01T16:54:43.165Z,38.27
2017-07-01T16:57:12.601Z,48.90
2017-07-01T16:59:41.509Z,49.23
2017-07-01T17:02:10.354Z,48.30
2017-07-01T17:04:40.109Z,46.07
2017-07-01T17:07:09.145Z,48.70
2017-07-01T17:09:37.349Z,43.83
2017-07-01T17:12:06.772Z,49.77
2017-07-01T17:14:35.049Z,47.93
2017-07-01T17:17:03.680Z,44.40
2017-07-01T17:19:32.325Z,53.17
2017-07-01T17:22:01.435Z,47.77
2017-07-01T17:24:30.194Z,55.43
2017-07-01T17:26:58.340Z,43.77
2017-07-01T17:29:27.173Z,52.50
2017-07-01T17:31:55.397Z,41.47
2017-07-01T17:34:23.947Z,34.53
2017-07-01T17:36:52.833Z,46.00
2017-07-01T17:39:21.617Z,54.43
2017-07-01T17:41:50.417Z,53.33
2017-07-01T17:44:18.735Z,50.83
2017-07-01T17:46:47.378Z,56.47
2017-07-01T17:49:16.278Z,43.60
2017-07-01T17:51:45.269Z,50.20
2017-07-01T17:54:14.061Z,53.57
2017-07-01T17:56:42.956Z,46.87
2017-07-01T17:59:11.185Z,44.73
2017-07-01T18:01:40.750Z,45.60
2017-07-01T18:04:09.109Z,46.13
2017-07-01T18:06:38.001Z,39.47
2017-07-01T18:09:06.898Z,53.40
2017-07-01T18:11:35.641Z,39.90
2017-07-01T18:14:05.190Z,41.00
2017-07-01T18:16:34.041Z,41.13
2017-07-01T18:19:03.377Z,43.60
2017-07-01T18:21:32.273Z,52.30
2017-07-01T18:24:00.453Z,41.40
2017-07-01T18:26:29.129Z,37.37
2017-07-01T18:28:57.421Z,41.33
2017-07-01T18:31:26.006Z,48.03
2017-07-01T18:33:54.582Z,41.63
2017-07-01T18:36:23.601Z,41.60
2017-07-01T18:38:51.802Z,51.13
2017-07-01T18:41:20.377Z,46.17
2017-07-01T18:43:49.324Z,40.23
2017-07-01T18:46:18.221Z,50.97
2017-07-01T18:48:47.121Z,48.27
2017-07-01T18:51:16.209Z,49.50
2017-07-01T18:53:45.113Z,45.50
2017-07-01T18:56:14.061Z,36.00
2017-07-01T18:58:43.706Z,42.20
2017-07-01T19:01:12.493Z,55.83
2017-07-01T19:03:41.248Z,38.13
2017-07-01T19:06:10.981Z,50.70
2017-07-01T19:08:39.585Z,45.83
2017-07-01T19:11:08.586Z,49.93
2017-07-01T19:13:37.584Z,55.83
2017-07-01T19:16:05.846Z,46.57
2017-07-01T19:18:34.545Z,44.77
2017-07-01T19:21:03.365Z,45.97
2017-07-01T19:23:32.126Z,47.13
2017-07-01T19:26:00.368Z,46.20
2017-07-01T19:28:30.113Z,50.53
2017-07-01T19:30:58.801Z,55.73
2017-07-01T19:33:26.974Z,50.23
2017-07-01T19:35:55.861Z,54.97
2017-07-01T19:38:24.861Z,52.37
2017-07-01T19:40:53.705Z,55.13
2017-07-01T19:43:23.449Z,45.20
2017-07-01T19:45:52.161Z,46.47
2017-07-01T19:48:21.045Z,42.77
2017-07-01T19:50:50.141Z,44.40
2017-07-01T19:53:18.985Z,49.57
2017-07-01T19:55:48.422Z,52.50
2017-07-01T19:58:17.316Z,55.17
2017-07-01T20:00:46.329Z,53.57
2017-07-01T20:03:15.065Z,45.00
2017-07-01T20:05:43.356Z,52.43
2017-07-01T20:08:13.054Z,42.57
2017-07-01T20:10:42.405Z,38.43
2017-07-01T20:13:11.502Z,54.23
2017-07-01T20:15:40.345Z,35.03
2017-07-01T20:18:08.540Z,41.47
2017-07-01T20:20:37.441Z,41.50
2017-07-01T20:23:06.143Z,41.70
2017-07-01T20:25:34.941Z,41.57
2017-07-01T20:28:03.933Z,49.80
2017-07-01T20:30:32.826Z,46.77
2017-07-01T20:33:00.996Z,49.87
2017-07-01T20:35:29.281Z,46.33
2017-07-01T20:37:57.865Z,43.43
2017-07-01T20:40:26.537Z,51.50
2017-07-01T20:42:55.441Z,47.77
2017-07-01T20:45:24.286Z,50.67
2017-07-01T20:47:53.725Z,41.47
2017-07-01T20:50:22.041Z,49.03
2017-07-01T20:52:50.593Z,44.23
2017-07-01T20:55:19.176Z,49.53
2017-07-01T20:57:48.169Z,52.60
2017-07-01T21:00:17.617Z,52.37
2017-07-01T21:02:46.373Z,44.23
2017-07-01T21:05:15.369Z,49.87
2017-07-01T21:07:44.213Z,56.17
2017-07-01T21:10:12.525Z,65.37
2017-07-01T21:12:42.366Z,55.90
2017-07-01T21:15:11.893Z,55.17
2017-07-01T21:17:40.638Z,56.00
2017-07-01T21:20:10.716Z,52.00
2017-07-01T21:22:40.057Z,61.63
2017-07-01T21:25:08.809Z,52.87
2017-07-01T21:27:38.506Z,48.70
2017-07-01T21:30:06.665Z,53.83
2017-07-01T21:32:35.537Z,44.97
2017-07-01T21:35:04.235Z,54.40
2017-07-01T21:37:32.936Z,50.73
2017-07-01T21:40:01.697Z,53.17
2017-07-01T21:42:30.694Z,48.43
2017-07-01T21:44:59.548Z,51.87
2017-07-01T21:47:28.377Z,56.70
2017-07-01T21:49:57.037Z,50.13
2017-07-01T21:52:25.837Z,59.20
2017-07-01T21:54:54.625Z,46.30
2017-07-01T21:57:23.533Z,50.40
2017-07-01T21:59:52.525Z,53.53
2017-07-01T22:02:21.373Z,55.10
2017-07-01T22:04:50.926Z,50.33
2017-07-01T22:07:19.712Z,50.40
2017-07-01T22:09:48.561Z,55.67
2017-07-01T22:12:17.065Z,58.43
2017-07-01T22:14:45.706Z,57.37
2017-07-01T22:17:14.349Z,55.77
2017-07-01T22:19:43.253Z,54.40
2017-07-01T22:22:11.385Z,53.77
2017-07-01T22:24:40.936Z,56.23
2017-07-01T22:27:09.285Z,51.53
2017-07-01T22:29:38.825Z,50.10
2017-07-01T22:32:07.401Z,52.50
2017-07-01T22:34:35.665Z,51.67
2017-07-01T22:37:04.529Z,63.60
2017-07-01T22:39:33.869Z,57.13
2017-07-01T22:42:02.775Z,54.57
2017-07-01T22:44:31.620Z,55.40
2017-07-01T22:47:01.052Z,52.53
2017-07-01T22:49:29.857Z,52.17
2017-07-01T22:51:57.976Z,55.63
2017-07-01T22:54:26.705Z,57.10
2017-07-01T22:56:55.193Z,56.27
2017-07-01T22:59:23.782Z,55.50
2017-07-01T23:01:52.464Z,53.07
2017-07-01T23:04:20.713Z,56.13
2017-07-01T23:06:48.873Z,59.23
2017-07-01T23:09:17.605Z,57.13
2017-07-01T23:11:46.505Z,60.50
2017-07-01T23:14:14.837Z,53.43
2017-07-01T23:16:44.392Z,57.47
2017-07-01T23:19:13.440Z,59.90
2017-07-01T23:21:42.285Z,56.30
2017-07-01T23:24:11.173Z,55.30
2017-07-01T23:26:39.982Z,65.07
2017-07-01T23:29:08.573Z,58.37
2017-07-01T23:31:37.233Z,62.00
2017-07-01T23:34:06.229Z,59.80
2017-07-01T23:36:35.073Z,61.10
2017-07-01T23:39:04.861Z,64.83
2017-07-01T23:41:33.609Z,62.23
2017-07-01T23:44:02.409Z,59.30
2017-07-01T23:46:31.257Z,62.30
2017-07-01T23:49:00.947Z,60.37
2017-07-01T23:51:29.700Z,71.77
2017-07-01T23:53:57.909Z,63.77
2017-07-01T23:56:26.699Z,64.90
2017-07-01T23:58:54.869Z,62.50
